TimeCDT,TemperatureF,Dew PointF,Humidity,Sea Level PressureIn,VisibilityMPH,Wind Direction,Wind SpeedMPH,Gust SpeedMPH,PrecipitationIn,Events,Conditions,WindDirDegrees,DateUTC
12:00 AM,82.4,75.2,79,29.79,7.0,West,4.6,-,0.00,Rain-Thunderstorm,Light Thunderstorms and Rain,280,2012-09-30 05:00:00
12:15 AM,82.4,77.0,84,29.78,9.0,NW,3.5,-,0.00,,Overcast,320,2012-09-30 05:15:00
12:24 AM,80.6,77.0,89,29.77,2.5,WSW,9.2,-,0.05,Rain-Thunderstorm,Heavy Rain,240,2012-09-30 05:24:00
12:35 AM,78.8,75.2,89,29.76,8.0,West,11.5,17.3,0.06,Rain-Thunderstorm,Light Thunderstorms and Rain,270,2012-09-30 05:35:00
12:53 AM,78.1,75.0,90,29.77,10.0,WSW,6.9,-,0.06,Thunderstorm,Thunderstorm,250,2012-09-30 05:53:00
1:27 AM,78.8,73.4,83,29.78,10.0,West,10.4,-,N/A,,Partly Cloudy,270,2012-09-30 06:27:00
1:53 AM,79.0,71.1,77,29.78,10.0,NNW,17.3,-,N/A,,Clear,330,2012-09-30 06:53:00
2:00 AM,78.8,71.6,78,29.79,10.0,NNW,16.1,-,N/A,,Clear,330,2012-09-30 07:00:00
2:53 AM,77.0,69.1,76,29.79,10.0,NW,12.7,-,N/A,,Clear,320,2012-09-30 07:53:00
3:53 AM,75.9,64.9,69,29.78,10.0,NW,13.8,-,N/A,,Partly Cloudy,320,2012-09-30 08:53:00
5:53 AM,71.1,64.9,81,29.81,10.0,West,5.8,-,N/A,,Mostly Cloudy,260,2012-09-30 10:53:00
6:53 AM,72.0,64.9,78,29.83,10.0,WNW,9.2,-,N/A,,Partly Cloudy,290,2012-09-30 11:53:00
7:53 AM,73.0,64.0,73,29.84,10.0,WNW,6.9,16.1,N/A,,Clear,290,2012-09-30 12:53:00
8:53 AM,75.0,64.9,71,29.86,10.0,WNW,16.1,20.7,N/A,,Clear,300,2012-09-30 13:53:00
9:53 AM,79.0,64.0,60,29.86,10.0,NW,19.6,25.3,N/A,,Partly Cloudy,310,2012-09-30 14:53:00
10:53 AM,80.1,63.0,56,29.87,10.0,NW,20.7,26.5,N/A,,Mostly Cloudy,310,2012-09-30 15:53:00
11:53 AM,82.9,64.0,53,29.86,10.0,NW,16.1,-,N/A,,Partly Cloudy,310,2012-09-30 16:53:00
12:53 PM,86.0,63.0,46,29.83,10.0,NW,23.0,29.9,N/A,,Clear,310,2012-09-30 17:53:00
1:53 PM,88.0,62.1,42,29.80,10.0,NW,17.3,26.5,N/A,,Clear,320,2012-09-30 18:53:00
3:53 PM,89.1,62.1,40,29.77,10.0,NNW,19.6,26.5,N/A,,Scattered Clouds,330,2012-09-30 20:53:00
4:53 PM,90.0,61.0,38,29.76,10.0,NW,18.4,27.6,N/A,,Scattered Clouds,320,2012-09-30 21:53:00
5:53 PM,87.1,62.1,43,29.76,10.0,NNW,15.0,23.0,N/A,,Partly Cloudy,340,2012-09-30 22:53:00
6:53 PM,84.0,63.0,49,29.78,10.0,North,11.5,-,N/A,,Partly Cloudy,360,2012-09-30 23:53:00
7:53 PM,81.0,63.0,54,29.80,10.0,North,8.1,-,N/A,,Mostly Cloudy,350,2012-10-01 00:53:00
8:53 PM,78.1,63.0,60,29.82,10.0,North,8.1,-,N/A,,Clear,350,2012-10-01 01:53:00
11:53 PM,73.9,64.0,71,29.85,10.0,WNW,3.5,-,N/A,,Clear,300,2012-10-01 04:53:00